Time;durP1;ratioP1;P1;durP2;ratioP2;P2;SDS_P1;SDS_P2;PMS_P1;PMS_P2;Temp;Humidity;BMP_temperature;BMP_pressure;BME280_temperature;BME280_humidity;BME280_pressure;Samples;Min_cycle;Max_cycle;Signal;HPM_P1;HPM_P2
2021/03/26 00:00:37;;;;;;;31.50;15.60;;;7.10;99.90;;;;;;5089386;28;20082;-69
2021/03/26 00:03:06;;;;;;;31.73;14.17;;;7.00;99.90;;;;;;5088429;28;20355;-69
2021/03/26 00:05:34;;;;;;;28.63;13.40;;;7.00;99.90;;;;;;5087732;28;20090;-69
2021/03/26 00:08:00;;;;;;;26.57;13.73;;;7.00;99.90;;;;;;5086674;28;20047;-69
2021/03/26 00:10:27;;;;;;;;;;;6.90;99.90;;;;;;5087493;28;20176;-69
2021/03/26 00:12:53;;;;;;;30.83;14.77;;;6.80;99.90;;;;;;5085763;28;20324;-69
2021/03/26 00:15:20;;;;;;;29.92;13.32;;;6.80;99.90;;;;;;5086751;28;20048;-69
2021/03/26 00:17:47;;;;;;;34.30;13.23;;;6.70;99.90;;;;;;5086265;28;20140;-69
2021/03/26 00:20:14;;;;;;;23.43;12.33;;;6.80;99.90;;;;;;5085238;28;20093;-69
2021/03/26 00:22:41;;;;;;;28.33;13.10;;;6.80;99.90;;;;;;5087196;28;20478;-69
2021/03/26 00:25:09;;;;;;;21.75;11.77;;;6.90;99.90;;;;;;5087125;28;20067;-69
2021/03/26 00:27:36;;;;;;;26.37;11.70;;;6.90;99.90;;;;;;5087097;28;20504;-69
2021/03/26 00:30:05;;;;;;;25.83;12.97;;;6.90;99.90;;;;;;5087763;28;20125;-69
2021/03/26 00:32:33;;;;;;;23.33;12.43;;;7.00;99.90;;;;;;5086658;28;20512;-69
2021/03/26 00:34:59;;;;;;;30.30;13.07;;;7.10;99.90;;;;;;5084776;28;20531;-69
2021/03/26 00:37:26;;;;;;;27.45;13.40;;;7.10;99.90;;;;;;5085424;28;20423;-69
2021/03/26 00:39:52;;;;;;;;;;;7.10;99.90;;;;;;5088996;28;20396;-69
2021/03/26 00:42:19;;;;;;;30.03;14.93;;;7.10;99.90;;;;;;5087300;28;19923;-69
2021/03/26 00:44:46;;;;;;;28.23;13.70;;;7.00;99.90;;;;;;5087718;28;20036;-69
2021/03/26 00:47:12;;;;;;;;;;;6.90;99.90;;;;;;5087625;28;20055;-69
2021/03/26 00:49:39;;;;;;;31.80;13.77;;;6.80;99.90;;;;;;5088986;28;20280;-69
2021/03/26 00:52:07;;;;;;;29.17;14.77;;;6.80;99.90;;;;;;5087926;28;20688;-69
2021/03/26 00:54:34;;;;;;;31.27;14.23;;;6.70;99.90;;;;;;5085673;28;20047;-69
2021/03/26 00:57:01;;;;;;;34.57;14.77;;;6.70;99.90;;;;;;5088840;28;20082;-69
2021/03/26 00:59:27;;;;;;;26.27;13.40;;;6.60;99.90;;;;;;5088617;28;20416;-69
2021/03/26 01:01:53;;;;;;;;;;;6.50;99.90;;;;;;5090318;28;20052;-69
2021/03/26 01:04:20;;;;;;;31.00;14.47;;;6.40;99.90;;;;;;5088063;28;19920;-69
2021/03/26 01:06:48;;;;;;;29.53;14.27;;;6.30;99.90;;;;;;5086359;28;20427;-69
2021/03/26 01:09:14;;;;;;;28.73;14.10;;;6.30;99.90;;;;;;5086099;28;20055;-69
2021/03/26 01:11:41;;;;;;;30.73;14.37;;;6.20;99.90;;;;;;5087850;28;20048;-69
2021/03/26 01:14:12;;;;;;;28.67;13.30;;;6.30;99.90;;;;;;5085616;28;20074;-69
2021/03/26 01:16:39;;;;;;;30.87;14.53;;;6.30;99.90;;;;;;5086228;28;20052;-69
2021/03/26 01:19:07;;;;;;;30.50;14.67;;;6.30;99.90;;;;;;5084256;28;20284;-69
2021/03/26 01:21:37;;;;;;;31.37;13.57;;;6.30;99.90;;;;;;5086475;28;20512;-69
2021/03/26 01:24:07;;;;;;;30.47;14.90;;;6.30;99.90;;;;;;5084167;28;20051;-69
2021/03/26 01:26:33;;;;;;;31.30;13.47;;;6.40;99.90;;;;;;5086684;28;20459;-69
2021/03/26 01:29:00;;;;;;;30.63;13.37;;;6.40;99.90;;;;;;5087953;28;20060;-69
2021/03/26 01:31:29;;;;;;;31.37;14.10;;;6.60;99.90;;;;;;5088216;28;20039;-69
2021/03/26 01:33:56;;;;;;;30.57;14.53;;;6.50;99.90;;;;;;5091800;28;20048;-69
2021/03/26 01:36:23;;;;;;;29.87;14.97;;;6.40;99.90;;;;;;5093067;28;20108;-69
2021/03/26 01:38:49;;;;;;;31.00;14.20;;;6.40;99.90;;;;;;5092325;28;20427;-69
2021/03/26 01:41:29;;;;;;;32.73;14.97;;;6.30;99.90;;;;;;5091873;28;20048;-69
2021/03/26 01:43:56;;;;;;;28.67;14.37;;;6.40;99.90;;;;;;5089338;28;20048;-69
2021/03/26 01:46:23;;;;;;;32.77;14.57;;;6.30;99.90;;;;;;5091436;28;20658;-69
2021/03/26 01:48:52;;;;;;;33.43;14.20;;;6.30;99.90;;;;;;5091440;28;20043;-69
2021/03/26 01:51:21;;;;;;;27.10;13.83;;;6.40;99.90;;;;;;5091505;28;20083;-69
2021/03/26 01:53:47;;;;;;;27.03;13.17;;;6.30;99.90;;;;;;5092414;28;20082;-69
2021/03/26 01:56:14;;;;;;;30.93;13.30;;;6.20;99.90;;;;;;5092052;28;20078;-69
2021/03/26 01:58:42;;;;;;;31.30;12.87;;;6.20;99.90;;;;;;5090379;28;20043;-69
2021/03/26 02:01:12;;;;;;;28.97;13.60;;;6.20;99.90;;;;;;5090012;28;20489;-69
2021/03/26 02:03:42;;;;;;;28.93;13.13;;;6.30;99.90;;;;;;5092614;28;20048;-69
2021/03/26 02:06:11;;;;;;;29.97;12.90;;;6.30;99.90;;;;;;5090337;28;20079;-69
2021/03/26 02:08:39;;;;;;;27.90;12.83;;;6.30;99.90;;;;;;5091910;28;20899;-69
2021/03/26 02:11:13;;;;;;;34.03;13.83;;;6.30;99.90;;;;;;5090716;28;20465;-69
2021/03/26 02:13:41;;;;;;;25.90;11.80;;;6.20;99.90;;;;;;5088459;28;20420;-69
2021/03/26 02:16:09;;;;;;;28.53;12.90;;;6.00;99.90;;;;;;5087355;28;20138;-69
2021/03/26 02:18:39;;;;;;;31.13;13.80;;;5.90;99.90;;;;;;5090186;28;20566;-69
2021/03/26 02:21:10;;;;;;;34.30;12.77;;;5.80;99.90;;;;;;5090370;28;20054;-69
2021/03/26 02:23:38;;;;;;;31.03;13.50;;;5.70;99.90;;;;;;5091011;28;20051;-69
2021/03/26 02:26:11;;;;;;;31.53;12.90;;;5.70;99.90;;;;;;5090978;28;20047;-69
2021/03/26 02:28:37;;;;;;;27.10;12.83;;;5.70;99.90;;;;;;5091492;28;20164;-69
2021/03/26 02:31:05;;;;;;;31.40;13.17;;;5.60;99.90;;;;;;5089633;28;20108;-69
2021/03/26 02:33:32;;;;;;;35.33;14.37;;;5.60;99.90;;;;;;5091917;28;20108;-69
2021/03/26 02:36:37;;;;;;;32.17;13.47;;;5.60;99.90;;;;;;5090031;28;20075;-69
2021/03/26 02:39:12;;;;;;;27.97;11.60;;;5.60;99.90;;;;;;5086600;28;20090;-69
2021/03/26 02:41:42;;;;;;;30.33;13.97;;;5.50;99.90;;;;;;5091120;28;20147;-69
2021/03/26 02:44:18;;;;;;;34.10;12.83;;;5.50;99.90;;;;;;5088123;28;20047;-69
2021/03/26 02:46:54;;;;;;;31.08;13.05;;;5.50;99.90;;;;;;5089653;28;20047;-69
2021/03/26 02:49:27;;;;;;;28.83;12.82;;;5.60;99.90;;;;;;5088988;28;20052;-69
2021/03/26 02:52:02;;;;;;;33.27;12.17;;;5.50;99.90;;;;;;5089433;28;20113;-69
2021/03/26 02:54:35;;;;;;;29.77;12.87;;;5.40;99.90;;;;;;5088646;28;20580;-69
2021/03/26 02:57:05;;;;;;;29.00;12.87;;;5.40;99.90;;;;;;5088576;28;20051;-69
2021/03/26 02:59:36;;;;;;;39.03;12.83;;;5.40;99.90;;;;;;5088734;28;20662;-69
2021/03/26 03:02:05;;;;;;;34.93;12.53;;;5.40;99.90;;;;;;5090114;28;20079;-69
2021/03/26 03:04:34;;;;;;;32.30;13.77;;;5.40;99.90;;;;;;5088891;28;20591;-69
2021/03/26 03:07:09;;;;;;;41.17;15.47;;;5.40;99.90;;;;;;5086737;28;20060;-69
2021/03/26 03:09:40;;;;;;;28.33;12.97;;;5.40;99.90;;;;;;5089455;28;20048;-69
2021/03/26 03:12:13;;;;;;;27.73;12.80;;;5.30;99.90;;;;;;5087528;28;20071;-69
2021/03/26 03:14:44;;;;;;;33.20;14.27;;;5.20;99.90;;;;;;5090119;28;20093;-69
2021/03/26 03:17:18;;;;;;;32.17;14.33;;;5.20;99.90;;;;;;5089481;28;20048;-69
2021/03/26 03:19:52;;;;;;;27.00;13.10;;;5.20;99.90;;;;;;5090901;28;20083;-69
2021/03/26 03:22:25;;;;;;;33.57;13.73;;;5.20;99.90;;;;;;5087779;28;20055;-69
2021/03/26 03:24:56;;;;;;;29.90;13.63;;;5.30;99.90;;;;;;5088265;28;20055;-69
2021/03/26 03:27:38;;;;;;;34.57;14.60;;;5.30;99.90;;;;;;5090508;28;20051;-69
2021/03/26 03:30:16;;;;;;;29.80;13.90;;;5.40;99.90;;;;;;5088026;28;20270;-69
2021/03/26 03:32:52;;;;;;;33.20;14.17;;;5.30;99.90;;;;;;5088959;28;20052;-69
2021/03/26 03:35:27;;;;;;;37.25;13.65;;;5.40;99.90;;;;;;5087747;28;20120;-69
2021/03/26 03:38:04;;;;;;;28.57;13.53;;;5.40;99.90;;;;;;5088199;28;20062;-69
2021/03/26 03:40:37;;;;;;;35.92;14.05;;;5.30;99.90;;;;;;5089781;28;20586;-69
2021/03/26 03:43:08;;;;;;;31.37;14.60;;;5.30;99.90;;;;;;5087434;28;20197;-69
2021/03/26 03:45:41;;;;;;;29.37;14.03;;;5.30;99.90;;;;;;5089981;28;20047;-69
2021/03/26 03:48:13;;;;;;;35.00;16.23;;;5.30;99.90;;;;;;5089726;28;20051;-69
2021/03/26 03:50:44;;;;;;;26.53;12.50;;;5.30;99.90;;;;;;5085678;28;20090;-69
2021/03/26 03:53:16;;;;;;;28.07;14.40;;;5.30;99.90;;;;;;5087059;28;20051;-69
2021/03/26 03:55:50;;;;;;;27.00;13.30;;;5.10;99.90;;;;;;5085460;28;20052;-69
2021/03/26 03:58:20;;;;;;;28.10;13.97;;;5.10;99.90;;;;;;5086440;28;20291;-69
2021/03/26 04:00:56;;;;;;;29.20;13.70;;;5.20;99.90;;;;;;5087555;28;20050;-69
2021/03/26 04:03:28;;;;;;;31.63;13.48;;;5.20;99.90;;;;;;5088491;28;20058;-69
2021/03/26 04:06:02;;;;;;;35.43;15.03;;;5.10;99.90;;;;;;5086541;28;20142;-69
2021/03/26 04:08:34;;;;;;;30.90;14.93;;;5.00;99.90;;;;;;5089323;28;20116;-69
2021/03/26 04:11:13;;;;;;;35.90;15.63;;;5.00;99.90;;;;;;5090368;28;20044;-69
2021/03/26 04:13:46;;;;;;;33.27;13.83;;;5.10;99.90;;;;;;5088929;28;20035;-69
2021/03/26 04:16:18;;;;;;;36.77;15.73;;;5.10;99.90;;;;;;5087080;28;20083;-69
2021/03/26 04:18:50;;;;;;;31.03;15.20;;;5.00;99.90;;;;;;5087570;28;20627;-69
2021/03/26 04:21:21;;;;;;;35.80;15.43;;;5.00;99.90;;;;;;5087301;28;20519;-69
2021/03/26 04:23:54;;;;;;;35.57;14.60;;;4.90;99.90;;;;;;5087654;28;20449;-69
2021/03/26 04:26:27;;;;;;;32.53;14.77;;;4.90;99.90;;;;;;5086799;28;20063;-69
2021/03/26 04:29:00;;;;;;;30.47;14.77;;;4.70;99.90;;;;;;5086569;28;20853;-69
2021/03/26 04:31:31;;;;;;;30.80;13.47;;;4.70;99.90;;;;;;5084701;28;20071;-69
2021/03/26 04:33:57;;;;;;;34.30;14.97;;;4.80;99.90;;;;;;5090857;28;20074;-69
2021/03/26 04:36:29;;;;;;;36.00;14.67;;;4.80;99.90;;;;;;5096488;28;20066;-69
2021/03/26 04:39:01;;;;;;;32.33;14.90;;;4.80;99.90;;;;;;5095581;28;20050;-69
2021/03/26 04:41:36;;;;;;;36.07;14.47;;;4.90;99.90;;;;;;5088330;28;20056;-69
2021/03/26 04:44:07;;;;;;;32.07;14.70;;;5.00;99.90;;;;;;5091551;28;20124;-69
2021/03/26 04:46:40;;;;;;;33.97;14.63;;;4.90;99.90;;;;;;5098427;28;20048;-71
2021/03/26 04:49:11;;;;;;;31.63;13.93;;;5.00;99.90;;;;;;5098626;28;20068;-69
2021/03/26 04:51:42;;;;;;;36.07;15.10;;;4.90;99.90;;;;;;5100714;28;20050;-69
2021/03/26 04:54:14;;;;;;;37.67;15.23;;;4.90;99.90;;;;;;5098720;28;20055;-69
2021/03/26 04:56:45;;;;;;;35.63;15.40;;;4.80;99.90;;;;;;5089429;28;20048;-69
2021/03/26 04:59:13;;;;;;;29.70;13.87;;;4.80;99.90;;;;;;5087000;28;20043;-69
2021/03/26 05:01:43;;;;;;;40.97;15.33;;;4.80;99.90;;;;;;5085624;28;20500;-69
2021/03/26 05:04:15;;;;;;;38.73;14.30;;;4.80;99.90;;;;;;5090311;28;20090;-69
2021/03/26 05:06:46;;;;;;;35.40;14.50;;;4.80;99.90;;;;;;5089707;28;20180;-69
2021/03/26 05:09:16;;;;;;;37.43;15.27;;;4.80;99.90;;;;;;5092382;28;20044;-69
2021/03/26 05:11:46;;;;;;;30.37;14.63;;;4.80;99.90;;;;;;5094954;28;20083;-69
2021/03/26 05:14:16;;;;;;;29.77;14.83;;;4.80;99.90;;;;;;5090917;28;20118;-69
2021/03/26 05:16:51;;;;;;;36.53;15.47;;;4.70;99.90;;;;;;5091798;28;20052;-69
2021/03/26 05:19:22;;;;;;;32.90;13.97;;;4.70;99.90;;;;;;5093606;28;20075;-69
2021/03/26 05:21:54;;;;;;;31.43;14.97;;;4.70;99.90;;;;;;5093741;28;20048;-69
2021/03/26 05:24:27;;;;;;;28.83;13.90;;;4.70;99.90;;;;;;5092713;28;20075;-69
2021/03/26 05:26:55;;;;;;;33.73;14.63;;;4.60;99.90;;;;;;5094968;28;20089;-69
2021/03/26 05:29:22;;;;;;;40.73;16.37;;;4.70;99.90;;;;;;5091242;28;20617;-69
2021/03/26 05:32:00;;;;;;;28.90;14.23;;;4.70;99.90;;;;;;5091556;28;20051;-69
2021/03/26 05:34:37;;;;;;;37.30;17.03;;;4.80;99.90;;;;;;5090790;28;20051;-69
2021/03/26 05:37:14;;;;;;;35.00;15.50;;;4.90;99.90;;;;;;5090820;28;20058;-69
2021/03/26 05:39:43;;;;;;;35.97;15.23;;;5.00;99.90;;;;;;5090065;28;20047;-69
2021/03/26 05:42:32;;;;;;;34.70;15.23;;;5.00;99.90;;;;;;5091080;28;20519;-69
2021/03/26 05:45:12;;;;;;;33.93;15.40;;;5.00;99.90;;;;;;5088802;28;20413;-68
2021/03/26 05:47:54;;;;;;;32.93;15.80;;;5.00;99.90;;;;;;5091891;28;20458;-69
2021/03/26 05:50:32;;;;;;;35.17;16.33;;;5.10;99.90;;;;;;5091344;28;20389;-69
2021/03/26 05:53:28;;;;;;;34.77;15.27;;;5.10;99.90;;;;;;5091856;28;20385;-69
2021/03/26 05:56:02;;;;;;;36.47;15.80;;;5.20;99.90;;;;;;5090635;28;20429;-68
2021/03/26 05:58:51;;;;;;;32.13;15.30;;;5.20;99.90;;;;;;5092138;28;20121;-68
2021/03/26 06:01:35;;;;;;;28.67;14.53;;;5.30;99.90;;;;;;5089933;28;20080;-68
2021/03/26 06:04:32;;;;;;;37.40;14.93;;;5.20;99.90;;;;;;5092325;28;20109;-68
2021/03/26 06:07:35;;;;;;;32.63;15.70;;;5.30;99.90;;;;;;5070704;28;20058;-68
2021/03/26 06:10:29;;;;;;;32.63;14.47;;;5.30;99.90;;;;;;5090105;28;20044;-69
2021/03/26 06:13:27;;;;;;;34.17;14.20;;;5.60;99.90;;;;;;5086459;28;20442;-68
2021/03/26 06:16:28;;;;;;;33.80;16.20;;;5.60;99.90;;;;;;5090235;28;20437;-68
2021/03/26 06:19:29;;;;;;;34.43;14.93;;;5.70;99.90;;;;;;5090333;28;20044;-68
2021/03/26 06:22:12;;;;;;;35.17;14.40;;;5.70;99.90;;;;;;5090871;28;20052;-69
2021/03/26 06:25:07;;;;;;;34.17;15.90;;;5.70;99.90;;;;;;5087782;28;20416;-69
2021/03/26 06:27:39;;;;;;;36.60;15.10;;;5.80;99.90;;;;;;5092908;28;20520;-69
2021/03/26 06:30:18;;;;;;;38.00;15.73;;;5.80;99.90;;;;;;5092387;28;20059;-68
2021/03/26 06:33:21;;;;;;;32.53;15.93;;;5.90;99.90;;;;;;5080882;28;20708;-68
2021/03/26 06:36:11;;;;;;;30.33;14.77;;;6.00;99.90;;;;;;5084606;28;20051;-68
2021/03/26 06:39:26;;;;;;;28.73;14.97;;;6.00;99.90;;;;;;5083323;28;20496;-69
2021/03/26 06:42:41;;;;;;;32.43;14.80;;;6.20;99.90;;;;;;5076401;28;20051;-69
2021/03/26 06:45:32;;;;;;;36.90;15.30;;;6.30;99.90;;;;;;5020381;28;20062;-70
2021/03/26 06:48:06;;;;;;;39.47;16.07;;;6.40;99.90;;;;;;5079454;28;20050;-70
2021/03/26 06:50:50;;;;;;;32.00;16.43;;;6.50;99.90;;;;;;5080037;28;20058;-70
2021/03/26 06:53:28;;;;;;;30.17;14.80;;;6.60;99.90;;;;;;5078470;28;20052;-70
2021/03/26 06:56:30;;;;;;;28.90;14.47;;;6.80;99.90;;;;;;5079599;28;20082;-70
2021/03/26 06:59:31;;;;;;;29.93;13.83;;;6.90;99.90;;;;;;5079909;28;20052;-70
2021/03/26 07:02:42;;;;;;;29.35;12.93;;;7.00;99.90;;;;;;5079725;28;20194;-70
2021/03/26 07:05:27;;;;;;;29.98;12.75;;;7.30;99.90;;;;;;5067237;28;20466;-70
2021/03/26 07:08:15;;;;;;;24.55;11.48;;;7.50;99.90;;;;;;5077516;28;20051;-70
2021/03/26 07:11:31;;;;;;;27.13;13.50;;;7.60;99.90;;;;;;5076036;28;20055;-71
2021/03/26 07:14:11;;;;;;;28.35;12.95;;;7.70;99.90;;;;;;4986909;28;20486;-71
2021/03/26 07:17:03;;;;;;;29.70;13.27;;;7.80;99.90;;;;;;5080567;28;20104;-72
2021/03/26 07:19:59;;;;;;;36.15;13.90;;;7.80;99.90;;;;;;5080161;28;20101;-70
2021/03/26 07:23:16;;;;;;;29.65;12.82;;;7.90;99.90;;;;;;5082665;28;20055;-73
2021/03/26 07:25:52;;;;;;;25.30;12.50;;;8.20;99.90;;;;;;5084961;28;20560;-73
2021/03/26 07:28:30;;;;;;;24.88;12.20;;;8.30;99.90;;;;;;5086809;28;20126;-71
2021/03/26 07:31:11;;;;;;;24.92;12.25;;;8.40;99.90;;;;;;5085740;28;20539;-72
2021/03/26 07:33:42;;;;;;;27.15;12.63;;;8.60;99.90;;;;;;5080550;28;20098;-73
2021/03/26 07:36:32;;;;;;;25.00;12.40;;;8.70;99.90;;;;;;5078436;28;20488;-70
2021/03/26 07:39:29;;;;;;;25.80;12.30;;;8.80;99.90;;;;;;5080752;28;21017;-71
2021/03/26 07:42:23;;;;;;;29.02;12.43;;;8.90;99.90;;;;;;5084427;28;20083;-72
2021/03/26 07:45:24;;;;;;;23.40;11.35;;;9.10;99.90;;;;;;5054377;28;20109;-73
2021/03/26 07:48:17;;;;;;;25.05;13.10;;;9.30;99.90;;;;;;5087160;28;20075;-73
2021/03/26 07:50:51;;;;;;;24.63;11.88;;;9.50;99.90;;;;;;5086498;28;20055;-71
2021/03/26 07:53:33;;;;;;;30.08;12.10;;;9.70;99.90;;;;;;5085241;28;20048;-71
2021/03/26 07:56:10;;;;;;;23.85;12.20;;;9.90;99.90;;;;;;5085405;28;20047;-74
2021/03/26 07:59:15;;;;;;;32.10;13.15;;;10.10;99.90;;;;;;5086299;28;20050;-71
2021/03/26 08:02:02;;;;;;;23.30;11.88;;;10.40;99.90;;;;;;5076517;28;20530;-73
2021/03/26 08:04:40;;;;;;;31.55;14.15;;;10.60;99.90;;;;;;5084223;28;20051;-71
2021/03/26 08:07:56;;;;;;;23.45;12.40;;;10.80;99.90;;;;;;5083459;28;20145;-72
2021/03/26 08:10:30;;;;;;;28.60;12.45;;;11.10;99.90;;;;;;5084124;28;20091;-70
2021/03/26 08:13:24;;;;;;;22.65;12.20;;;11.60;99.90;;;;;;5084843;28;20466;-71
2021/03/26 08:16:13;;;;;;;26.80;11.88;;;12.00;99.90;;;;;;5034069;28;20082;-70
2021/03/26 08:18:57;;;;;;;21.85;12.15;;;12.30;99.90;;;;;;5085873;28;20052;-71
2021/03/26 08:21:32;;;;;;;24.98;12.07;;;12.70;99.90;;;;;;5085587;28;20511;-71
2021/03/26 08:24:32;;;;;;;25.70;12.13;;;13.10;99.90;;;;;;5081511;28;20048;-73
2021/03/26 08:27:10;;;;;;;22.33;11.38;;;13.50;99.90;;;;;;5083535;28;20047;-71
2021/03/26 08:29:42;;;;;;;19.02;11.50;;;13.90;99.90;;;;;;5084969;28;20052;-71
2021/03/26 08:32:31;;;;;;;23.65;11.75;;;14.30;99.90;;;;;;5085440;28;20059;-69
2021/03/26 08:35:24;;;;;;;19.92;12.48;;;14.90;99.90;;;;;;5081975;28;20048;-75
2021/03/26 08:38:07;;;;;;;20.77;12.50;;;15.00;99.90;;;;;;5061604;28;20071;-70
2021/03/26 08:40:45;;;;;;;25.52;11.63;;;15.00;99.90;;;;;;5075617;28;20104;-70
2021/03/26 08:43:13;;;;;;;23.13;11.80;;;15.40;99.90;;;;;;5074768;28;20519;-70
2021/03/26 08:45:44;;;;;;;22.80;11.65;;;15.80;99.90;;;;;;5083359;28;20187;-70
2021/03/26 08:48:27;;;;;;;20.42;10.88;;;15.70;99.90;;;;;;5081103;28;20090;-70
2021/03/26 08:51:09;;;;;;;19.77;11.10;;;15.00;99.90;;;;;;5083259;28;20650;-70
2021/03/26 08:53:49;;;;;;;21.50;11.52;;;16.50;99.90;;;;;;5081948;28;20064;-70
2021/03/26 08:56:50;;;;;;;17.30;10.80;;;17.50;99.90;;;;;;5083020;28;20500;-70
2021/03/26 08:59:43;;;;;;;18.77;11.57;;;18.80;99.90;;;;;;4993446;28;20492;-71
2021/03/26 09:02:44;;;;;;;19.67;11.35;;;18.50;99.90;;;;;;5080938;28;20071;-70
2021/03/26 09:05:38;;;;;;;19.35;12.07;;;18.30;99.90;;;;;;5080965;28;20184;-70
2021/03/26 09:08:19;;;;;;;18.55;11.00;;;17.50;99.90;;;;;;5047565;28;20048;-70
2021/03/26 09:11:17;;;;;;;20.50;11.45;;;18.20;99.90;;;;;;5083885;28;20460;-72
2021/03/26 09:14:06;;;;;;;23.80;11.02;;;17.90;99.90;;;;;;5082926;28;20082;-70
2021/03/26 09:16:35;;;;;;;23.33;11.95;;;17.70;99.90;;;;;;5083316;28;20593;-70
2021/03/26 09:19:14;;;;;;;26.90;12.02;;;17.70;99.90;;;;;;5083744;28;20048;-70
2021/03/26 09:21:51;;;;;;;19.42;11.27;;;17.80;99.90;;;;;;5081734;28;20146;-70
2021/03/26 09:24:36;;;;;;;22.35;11.13;;;18.50;99.90;;;;;;5080229;28;20497;-70
2021/03/26 09:27:21;;;;;;;19.48;11.27;;;18.90;99.90;;;;;;5084015;28;20094;-70
2021/03/26 09:30:07;;;;;;;16.35;10.38;;;19.80;99.00;;;;;;5081775;28;20044;-70
2021/03/26 09:32:44;;;;;;;21.25;11.23;;;20.20;96.90;;;;;;5084509;28;20048;-70
2021/03/26 09:35:17;;;;;;;20.23;11.25;;;20.20;96.20;;;;;;5082448;28;20520;-70
2021/03/26 09:37:47;;;;;;;19.80;11.18;;;20.00;94.90;;;;;;5082734;28;20139;-71
2021/03/26 09:40:35;;;;;;;18.00;10.55;;;19.70;95.30;;;;;;5078628;28;20059;-71
2021/03/26 09:43:13;;;;;;;16.23;10.55;;;20.30;95.70;;;;;;5080377;28;20075;-70
2021/03/26 09:45:46;;;;;;;19.60;10.02;;;21.60;93.10;;;;;;5084313;28;20056;-71
2021/03/26 09:48:46;;;;;;;16.48;10.30;;;22.50;91.40;;;;;;5085123;28;20052;-71
2021/03/26 09:51:24;;;;;;;15.40;9.80;;;23.40;85.50;;;;;;5085852;28;20060;-71
2021/03/26 09:53:52;;;;;;;17.35;9.27;;;22.30;84.00;;;;;;5082677;28;20055;-71
2021/03/26 09:56:30;;;;;;;16.08;10.27;;;23.10;82.80;;;;;;5084428;28;20051;-71
2021/03/26 09:59:02;;;;;;;15.18;9.32;;;22.80;81.00;;;;;;5085430;28;20083;-72
2021/03/26 10:01:37;;;;;;;17.33;8.70;;;23.80;78.90;;;;;;5085764;28;20044;-71
2021/03/26 10:04:07;;;;;;;17.17;8.93;;;23.20;75.90;;;;;;5083775;28;20094;-72
2021/03/26 10:06:43;;;;;;;15.48;8.75;;;22.40;77.50;;;;;;5083662;28;20054;-72
2021/03/26 10:09:30;;;;;;;13.32;7.93;;;23.40;74.90;;;;;;5083614;28;20533;-71
2021/03/26 10:12:07;;;;;;;13.50;9.33;;;23.80;74.10;;;;;;5083847;28;20514;-72
2021/03/26 10:14:37;;;;;;;13.38;8.23;;;23.50;71.60;;;;;;5084605;28;20059;-71
2021/03/26 10:17:28;;;;;;;14.63;8.68;;;23.40;70.50;;;;;;5085645;28;20055;-72
2021/03/26 10:19:56;;;;;;;14.25;9.13;;;24.50;67.20;;;;;;5083946;28;20052;-72
2021/03/26 10:22:27;;;;;;;14.65;9.15;;;23.60;68.10;;;;;;5083353;28;20859;-72
2021/03/26 10:24:58;;;;;;;14.68;8.35;;;24.00;67.40;;;;;;5083457;28;20101;-71
2021/03/26 10:27:30;;;;;;;13.20;8.35;;;24.50;68.50;;;;;;5086222;28;20059;-72
2021/03/26 10:30:02;;;;;;;14.95;8.52;;;25.20;65.20;;;;;;5084540;28;20175;-72
2021/03/26 10:32:31;;;;;;;13.48;8.35;;;24.20;63.90;;;;;;5085616;28;20059;-72
2021/03/26 10:35:10;;;;;;;11.15;7.22;;;23.80;65.50;;;;;;5083113;28;20051;-71
2021/03/26 10:37:43;;;;;;;12.57;6.70;;;23.20;63.90;;;;;;5083810;28;20087;-72
2021/03/26 10:40:20;;;;;;;12.20;7.30;;;24.20;63.70;;;;;;5079183;28;20058;-72
2021/03/26 10:42:56;;;;;;;11.73;6.80;;;23.90;63.40;;;;;;5075312;28;20060;-72
2021/03/26 10:45:58;;;;;;;13.80;7.45;;;24.90;62.80;;;;;;5081869;28;20126;-72
2021/03/26 10:48:32;;;;;;;15.18;8.02;;;24.00;62.00;;;;;;5040167;28;20075;-72
2021/03/26 10:51:27;;;;;;;11.60;7.07;;;24.60;61.00;;;;;;5085484;28;20052;-71
2021/03/26 10:54:04;;;;;;;12.57;6.30;;;24.00;59.50;;;;;;5075019;28;20519;-74
2021/03/26 10:56:42;;;;;;;12.85;7.72;;;23.40;60.70;;;;;;5078133;28;20768;-73
2021/03/26 10:59:17;;;;;;;12.85;6.55;;;23.00;61.30;;;;;;5077659;28;20086;-73
2021/03/26 11:01:46;;;;;;;11.68;7.50;;;24.60;59.40;;;;;;5081719;28;20088;-74
2021/03/26 11:04:29;;;;;;;13.32;7.88;;;23.90;60.70;;;;;;5082788;28;20047;-73
2021/03/26 11:07:03;;;;;;;12.80;8.02;;;25.30;59.50;;;;;;5081421;28;20564;-73
2021/03/26 11:09:38;;;;;;;10.90;6.70;;;24.50;59.20;;;;;;5082031;28;20079;-73
2021/03/26 11:12:22;;;;;;;10.65;6.55;;;24.10;58.70;;;;;;5082608;28;20049;-76
2021/03/26 11:14:57;;;;;;;11.10;6.35;;;24.30;58.00;;;;;;5084036;28;20081;-73
2021/03/26 11:17:35;;;;;;;10.25;6.75;;;24.40;57.80;;;;;;5084249;28;20693;-74
2021/03/26 11:20:35;;;;;;;13.02;7.10;;;23.20;58.60;;;;;;5083464;28;20051;-74
2021/03/26 11:23:16;;;;;;;13.05;7.85;;;22.70;58.90;;;;;;5078057;28;20065;-73
2021/03/26 11:25:46;;;;;;;15.02;8.35;;;22.00;59.90;;;;;;5084463;28;20043;-74
2021/03/26 11:28:20;;;;;;;16.15;8.55;;;22.50;60.90;;;;;;5084456;28;20051;-75
2021/03/26 11:31:10;;;;;;;12.55;7.43;;;23.30;59.60;;;;;;5078165;28;20530;-74
2021/03/26 11:33:47;;;;;;;14.45;6.75;;;23.00;59.80;;;;;;5078654;28;20051;-74
2021/03/26 11:36:41;;;;;;;14.25;6.63;;;23.10;59.20;;;;;;5078914;28;20067;-74
2021/03/26 11:39:20;;;;;;;12.90;6.90;;;22.90;59.40;;;;;;5084418;28;20047;-79
2021/03/26 11:41:57;;;;;;;22.38;10.60;;;23.50;59.10;;;;;;5076776;28;20054;-76
2021/03/26 11:44:29;;;;;;;14.20;7.72;;;22.90;59.80;;;;;;5079271;28;20109;-74
2021/03/26 11:46:59;;;;;;;14.30;8.55;;;22.90;59.30;;;;;;5074463;28;20079;-73
2021/03/26 11:49:29;;;;;;;16.10;8.13;;;23.20;59.30;;;;;;5078557;28;20047;-73
2021/03/26 11:52:04;;;;;;;15.32;6.78;;;22.50;60.40;;;;;;5074807;28;20051;-72
2021/03/26 11:54:41;;;;;;;12.98;8.15;;;22.90;59.40;;;;;;5071614;28;20101;-75
2021/03/26 11:57:13;;;;;;;;;;;21.40;60.70;;;;;;5076488;28;20188;-69
2021/03/26 12:00:00;;;;;;;16.58;8.05;;;22.30;62.00;;;;;;5079868;28;19982;-69
2021/03/26 12:02:43;;;;;;;17.08;7.50;;;21.70;60.20;;;;;;5067726;28;20044;-69
2021/03/26 12:05:19;;;;;;;14.50;7.40;;;21.90;61.90;;;;;;5073887;28;20137;-69
2021/03/26 12:07:54;;;;;;;11.40;7.03;;;21.50;61.20;;;;;;5079841;28;20492;-69
2021/03/26 12:10:28;;;;;;;12.05;6.75;;;22.40;62.70;;;;;;5079346;28;20497;-69
2021/03/26 12:13:06;;;;;;;12.90;7.10;;;23.20;59.90;;;;;;5076793;28;20508;-69
2021/03/26 12:15:38;;;;;;;13.45;7.47;;;23.50;58.80;;;;;;5079915;28;20089;-69
2021/03/26 12:18:12;;;;;;;11.10;7.43;;;22.60;60.20;;;;;;5075010;28;20492;-69
2021/03/26 12:20:40;;;;;;;16.80;8.73;;;21.90;59.90;;;;;;5074643;28;20476;-69
2021/03/26 12:23:33;;;;;;;16.48;7.72;;;20.70;61.80;;;;;;5074212;28;20276;-69
2021/03/26 12:26:07;;;;;;;15.85;7.35;;;21.30;61.40;;;;;;5068069;28;20112;-69
2021/03/26 12:28:54;;;;;;;16.60;6.85;;;21.70;60.30;;;;;;5073684;28;20079;-69
2021/03/26 12:31:25;;;;;;;11.85;7.43;;;21.70;60.30;;;;;;5072134;28;20069;-69
2021/03/26 12:33:57;;;;;;;16.52;7.40;;;21.10;61.50;;;;;;5069330;28;20058;-69
2021/03/26 12:36:29;;;;;;;12.68;7.32;;;21.60;60.70;;;;;;5071095;28;20092;-69
2021/03/26 12:39:02;;;;;;;14.57;7.45;;;21.90;59.40;;;;;;5075927;28;20056;-69
2021/03/26 12:41:49;;;;;;;11.88;6.88;;;23.00;60.50;;;;;;5079546;28;20072;-69
2021/03/26 12:44:25;;;;;;;10.93;6.68;;;23.00;59.30;;;;;;5075565;28;20051;-69
2021/03/26 12:47:16;;;;;;;13.23;7.75;;;22.00;59.30;;;;;;5076661;28;20401;-69
2021/03/26 12:50:01;;;;;;;14.38;6.80;;;21.40;60.90;;;;;;5079924;28;20056;-69
2021/03/26 12:52:35;;;;;;;12.52;6.43;;;20.90;61.00;;;;;;5078740;28;20063;-70
2021/03/26 12:55:12;;;;;;;14.73;7.68;;;20.80;62.20;;;;;;5079656;28;20054;-69
2021/03/26 12:57:46;;;;;;;15.98;6.72;;;20.40;61.30;;;;;;5075721;28;20521;-75
2021/03/26 13:00:17;;;;;;;10.60;5.95;;;20.50;61.90;;;;;;5079022;28;20051;-74
2021/03/26 13:02:55;;;;;;;11.02;6.88;;;21.30;61.00;;;;;;5078247;28;20056;-70
2021/03/26 13:05:26;;;;;;;12.30;7.32;;;21.00;60.00;;;;;;5076349;28;20079;-70
2021/03/26 13:08:03;;;;;;;12.45;6.85;;;21.00;60.40;;;;;;5079213;28;20171;-70
2021/03/26 13:10:54;;;;;;;11.85;7.07;;;21.00;60.50;;;;;;5079989;28;20051;-69
2021/03/26 13:13:30;;;;;;;14.20;7.18;;;20.70;60.00;;;;;;5078706;28;20129;-70
2021/03/26 13:16:21;;;;;;;16.05;8.25;;;20.50;59.70;;;;;;5077588;28;20101;-72
2021/03/26 13:18:54;;;;;;;13.65;7.63;;;20.60;60.60;;;;;;5080813;28;20460;-72
2021/03/26 13:21:40;;;;;;;12.48;7.03;;;21.30;60.00;;;;;;5082375;28;20070;-72
2021/03/26 13:24:46;;;;;;;10.57;6.35;;;21.30;60.00;;;;;;5085933;28;20063;-72
2021/03/26 13:27:34;;;;;;;12.82;7.82;;;21.40;59.90;;;;;;5077664;28;20043;-72
2021/03/26 13:30:37;;;;;;;14.57;6.88;;;20.80;60.30;;;;;;5078224;28;21487;-72